aviador You're here:

CYBU Decoded Metar

NIPAWIN AIRPORT in SK, CANADA
Report Time2018-01-17 01:00:00
UTC Time2018-01-17 01:22:38
Flight Rules vfr VFR
Wind190° at 10 kt
W.Decomp.*RWY 21: 8.7 kt HW 4.8 kt LCW
RWY 12: 4.8 kt HW 8.7 kt RCW
W.Rank190° ranks 8
Current wind is above 190° avg. (7.7)
Visibility9999 m
Phenomena:N/A
Clouds:N/A
Expected CloudBase > 1,600 ft AGL from Temp-Dew spread
CeilingNone
Temp-13°C (ISA -26)
Dew Point-17°C (72% RH)
AAT-20.1°C
QNH1013 hPa
Density Alt-1,955 ft
Elevation1,227 ft
Report Wrong Elevation
Raw Report
CYBU 170100Z AUTO 19010KT 9SM CLR M13/M17 A2991 RMK SLP167=

Extra information for CYBU:More info

Metar Taf Metar & Taf Last 4 Metars F.Rules Stats Wind Profile Meteogram Temp Stats Airport Information Weather charts Add Link Nearby VenuesMetar ALERT Operation Metar Decoded Social comments